sensor_id;sensor_type;location;lat;lon;timestamp;pressure;altitude;pressure_sealevel;temperature;humidity
50268;BME280;36153;50.960;6.220;2023-02-23T00:01:43;100244.19;;;13.37;64.71
50268;BME280;36153;50.960;6.220;2023-02-23T00:04:45;100239.84;;;13.41;64.72
50268;BME280;36153;50.960;6.220;2023-02-23T00:07:47;100245.06;;;13.33;65.15
50268;BME280;36153;50.960;6.220;2023-02-23T00:10:49;100237.22;;;13.30;64.95
50268;BME280;36153;50.960;6.220;2023-02-23T00:13:58;100245.06;;;13.31;65.14
50268;BME280;36153;50.960;6.220;2023-02-23T00:17:01;100245.06;;;13.30;65.20
50268;BME280;36153;50.960;6.220;2023-02-23T00:20:04;100239.84;;;13.27;65.33
50268;BME280;36153;50.960;6.220;2023-02-23T00:23:12;100245.94;;;13.29;65.36
50268;BME280;36153;50.960;6.220;2023-02-23T00:26:15;100242.50;;;13.24;65.53
50268;BME280;36153;50.960;6.220;2023-02-23T00:29:19;100244.22;;;13.28;65.78
50268;BME280;36153;50.960;6.220;2023-02-23T00:32:20;100248.56;;;13.29;65.47
50268;BME280;36153;50.960;6.220;2023-02-23T00:35:22;100238.09;;;13.27;65.61
50268;BME280;36153;50.960;6.220;2023-02-23T00:38:24;100243.34;;;13.23;65.31
50268;BME280;36153;50.960;6.220;2023-02-23T00:41:25;100241.63;;;13.20;65.59
50268;BME280;36153;50.960;6.220;2023-02-23T00:44:27;100239.88;;;13.18;65.75
50268;BME280;36153;50.960;6.220;2023-02-23T00:47:28;100238.16;;;13.18;65.81
50268;BME280;36153;50.960;6.220;2023-02-23T00:50:28;100236.41;;;13.15;65.92
50268;BME280;36153;50.960;6.220;2023-02-23T00:53:28;100239.91;;;13.14;65.89
50268;BME280;36153;50.960;6.220;2023-02-23T00:56:29;100241.66;;;13.09;65.98
50268;BME280;36153;50.960;6.220;2023-02-23T00:59:29;100239.91;;;13.14;66.13
50268;BME280;36153;50.960;6.220;2023-02-23T01:02:29;100245.09;;;13.24;66.01
50268;BME280;36153;50.960;6.220;2023-02-23T01:05:33;100253.78;;;13.26;65.67
50268;BME280;36153;50.960;6.220;2023-02-23T01:08:36;100249.47;;;13.20;66.01
50268;BME280;36153;50.960;6.220;2023-02-23T01:11:38;100241.66;;;13.15;65.78
50268;BME280;36153;50.960;6.220;2023-02-23T01:14:40;100239.91;;;13.11;65.75
50268;BME280;36153;50.960;6.220;2023-02-23T01:17:41;100244.31;;;13.02;66.17
50268;BME280;36153;50.960;6.220;2023-02-23T01:20:45;100246.03;;;12.98;66.09
50268;BME280;36153;50.960;6.220;2023-02-23T01:23:46;100244.31;;;12.91;66.18
50268;BME280;36153;50.960;6.220;2023-02-23T01:26:46;100243.44;;;12.86;66.17
50268;BME280;36153;50.960;6.220;2023-02-23T01:29:47;100250.44;;;12.87;66.28
50268;BME280;36153;50.960;6.220;2023-02-23T01:32:47;100250.41;;;12.93;66.43
50268;BME280;36153;50.960;6.220;2023-02-23T01:35:58;100246.06;;;12.93;66.45
50268;BME280;36153;50.960;6.220;2023-02-23T01:38:58;100243.44;;;12.98;66.28
50268;BME280;36153;50.960;6.220;2023-02-23T01:42:02;100242.56;;;12.97;66.34
50268;BME280;36153;50.960;6.220;2023-02-23T01:45:28;100241.69;;;12.94;66.37
50268;BME280;36153;50.960;6.220;2023-02-23T01:48:32;100246.09;;;12.89;66.37
50268;BME280;36153;50.960;6.220;2023-02-23T01:51:39;100246.97;;;12.75;66.67
50268;BME280;36153;50.960;6.220;2023-02-23T01:54:45;100240.03;;;12.68;66.54
50268;BME280;36153;50.960;6.220;2023-02-23T01:57:55;100246.97;;;12.69;66.58
50268;BME280;36153;50.960;6.220;2023-02-23T02:00:58;100240.00;;;12.62;66.55
50268;BME280;36153;50.960;6.220;2023-02-23T02:04:04;100233.94;;;12.61;66.71
50268;BME280;36153;50.960;6.220;2023-02-23T02:07:05;100240.91;;;12.64;66.71
50268;BME280;36153;50.960;6.220;2023-02-23T02:10:07;100239.13;;;12.64;66.66
50268;BME280;36153;50.960;6.220;2023-02-23T02:13:16;100240.00;;;12.73;66.76
50268;BME280;36153;50.960;6.220;2023-02-23T02:23:03;100241.75;;;12.74;66.59
50268;BME280;36153;50.960;6.220;2023-02-23T02:26:21;100236.50;;;12.81;66.70
50268;BME280;36153;50.960;6.220;2023-02-23T02:40:30;100234.75;;;12.77;66.68
50268;BME280;36153;50.960;6.220;2023-02-23T02:46:48;100234.75;;;12.77;66.19
50268;BME280;36153;50.960;6.220;2023-02-23T02:50:01;100233.03;;;12.73;66.17
50268;BME280;36153;50.960;6.220;2023-02-23T02:53:06;100226.09;;;12.72;66.20
50268;BME280;36153;50.960;6.220;2023-02-23T02:56:08;100228.69;;;12.69;66.61
50268;BME280;36153;50.960;6.220;2023-02-23T02:59:12;100230.41;;;12.72;66.51
50268;BME280;36153;50.960;6.220;2023-02-23T03:02:35;100231.28;;;12.69;66.33
50268;BME280;36153;50.960;6.220;2023-02-23T03:05:54;100231.31;;;12.72;66.35
50268;BME280;36153;50.960;6.220;2023-02-23T03:12:56;100232.19;;;12.68;66.62
50268;BME280;36153;50.960;6.220;2023-02-23T03:16:25;100228.69;;;12.77;66.57
50268;BME280;36153;50.960;6.220;2023-02-23T03:20:05;100227.81;;;12.73;66.44
50268;BME280;36153;50.960;6.220;2023-02-23T03:23:47;100230.41;;;12.73;66.36
50268;BME280;36153;50.960;6.220;2023-02-23T03:27:35;100235.63;;;12.73;66.26
50268;BME280;36153;50.960;6.220;2023-02-23T03:31:12;100234.78;;;12.70;66.54
50268;BME280;36153;50.960;6.220;2023-02-23T03:34:39;100226.94;;;12.71;66.52
50268;BME280;36153;50.960;6.220;2023-02-23T03:38:35;100240.00;;;12.79;66.29
50268;BME280;36153;50.960;6.220;2023-02-23T03:41:57;100237.41;;;12.70;66.07
50268;BME280;36153;50.960;6.220;2023-02-23T03:45:20;100238.25;;;12.72;66.45
50268;BME280;36153;50.960;6.220;2023-02-23T03:48:42;100241.75;;;12.63;66.58
50268;BME280;36153;50.960;6.220;2023-02-23T03:52:07;100240.91;;;12.61;66.52
50268;BME280;36153;50.960;6.220;2023-02-23T03:55:34;100248.72;;;12.52;66.83
50268;BME280;36153;50.960;6.220;2023-02-23T03:58:59;100235.66;;;12.58;66.86
50268;BME280;36153;50.960;6.220;2023-02-23T04:02:21;100241.75;;;12.54;66.65
50268;BME280;36153;50.960;6.220;2023-02-23T04:05:42;100239.16;;;12.57;66.85
50268;BME280;36153;50.960;6.220;2023-02-23T04:09:05;100240.00;;;12.60;67.03
50268;BME280;36153;50.960;6.220;2023-02-23T04:12:31;100254.81;;;12.61;66.78
50268;BME280;36153;50.960;6.220;2023-02-23T04:15:54;100251.34;;;12.55;66.82
50268;BME280;36153;50.960;6.220;2023-02-23T04:18:56;100250.47;;;12.53;66.73
50268;BME280;36153;50.960;6.220;2023-02-23T04:21:56;100261.78;;;12.55;66.92
50268;BME280;36153;50.960;6.220;2023-02-23T04:24:57;100260.94;;;12.51;67.10
50268;BME280;36153;50.960;6.220;2023-02-23T04:27:57;100254.81;;;12.46;66.97
50268;BME280;36153;50.960;6.220;2023-02-23T04:30:57;100254.81;;;12.46;66.97
50268;BME280;36153;50.960;6.220;2023-02-23T04:33:58;100263.50;;;12.50;66.94
50268;BME280;36153;50.960;6.220;2023-02-23T04:36:58;100267.88;;;12.51;66.96
50268;BME280;36153;50.960;6.220;2023-02-23T04:39:58;100266.13;;;12.54;67.04
50268;BME280;36153;50.960;6.220;2023-02-23T04:42:59;100266.13;;;12.60;67.04
50268;BME280;36153;50.960;6.220;2023-02-23T04:45:59;100271.38;;;12.56;67.00
50268;BME280;36153;50.960;6.220;2023-02-23T04:49:00;100271.38;;;12.53;67.03
50268;BME280;36153;50.960;6.220;2023-02-23T04:52:01;100267.88;;;12.51;67.03
50268;BME280;36153;50.960;6.220;2023-02-23T04:55:01;100269.63;;;12.50;66.81
50268;BME280;36153;50.960;6.220;2023-02-23T04:58:01;100274.84;;;12.52;67.02
50268;BME280;36153;50.960;6.220;2023-02-23T05:01:06;100267.00;;;12.53;67.22
50268;BME280;36153;50.960;6.220;2023-02-23T05:04:08;100271.34;;;12.50;67.18
50268;BME280;36153;50.960;6.220;2023-02-23T05:07:09;100268.72;;;12.50;67.00
50268;BME280;36153;50.960;6.220;2023-02-23T05:10:10;100276.59;;;12.51;67.27
50268;BME280;36153;50.960;6.220;2023-02-23T05:13:10;100277.47;;;12.47;67.33
50268;BME280;36153;50.960;6.220;2023-02-23T05:16:11;100275.69;;;12.41;67.56
50268;BME280;36153;50.960;6.220;2023-02-23T05:19:11;100272.25;;;12.33;67.67
50268;BME280;36153;50.960;6.220;2023-02-23T05:22:11;100283.50;;;12.26;68.53
50268;BME280;36153;50.960;6.220;2023-02-23T05:25:15;100283.53;;;12.23;68.78
50268;BME280;36153;50.960;6.220;2023-02-23T05:28:15;100280.91;;;12.20;68.90
50268;BME280;36153;50.960;6.220;2023-02-23T05:31:16;100289.63;;;12.28;68.24
50268;BME280;36153;50.960;6.220;2023-02-23T05:34:17;100279.19;;;12.23;68.46
50268;BME280;36153;50.960;6.220;2023-02-23T05:37:17;100282.69;;;12.33;68.34
50268;BME280;36153;50.960;6.220;2023-02-23T05:40:18;100280.91;;;12.24;68.34
50268;BME280;36153;50.960;6.220;2023-02-23T05:43:19;100289.63;;;12.33;68.21
50268;BME280;36153;50.960;6.220;2023-02-23T05:46:22;100284.41;;;12.31;67.93
50268;BME280;36153;50.960;6.220;2023-02-23T05:49:23;100284.41;;;12.25;68.29
50268;BME280;36153;50.960;6.220;2023-02-23T05:52:23;100277.41;;;12.08;68.46
50268;BME280;36153;50.960;6.220;2023-02-23T05:55:24;100276.56;;;12.12;68.55
50268;BME280;36153;50.960;6.220;2023-02-23T05:58:24;100281.78;;;12.28;67.96
50268;BME280;36153;50.960;6.220;2023-02-23T06:01:26;100280.06;;;12.24;68.08
50268;BME280;36153;50.960;6.220;2023-02-23T06:04:26;100281.81;;;12.25;68.37
50268;BME280;36153;50.960;6.220;2023-02-23T06:07:27;100289.63;;;12.29;67.93
50268;BME280;36153;50.960;6.220;2023-02-23T06:10:27;100279.19;;;12.28;68.03
50268;BME280;36153;50.960;6.220;2023-02-23T06:13:28;100285.25;;;12.32;67.87
50268;BME280;36153;50.960;6.220;2023-02-23T06:16:28;100288.75;;;12.38;67.93
50268;BME280;36153;50.960;6.220;2023-02-23T06:19:28;100294.84;;;12.34;67.68
50268;BME280;36153;50.960;6.220;2023-02-23T06:22:30;100295.72;;;12.33;67.79
50268;BME280;36153;50.960;6.220;2023-02-23T06:25:31;100301.81;;;12.37;67.57
50268;BME280;36153;50.960;6.220;2023-02-23T06:28:31;100300.94;;;12.39;67.75
50268;BME280;36153;50.960;6.220;2023-02-23T06:31:32;100307.03;;;12.41;67.62
50268;BME280;36153;50.960;6.220;2023-02-23T06:34:32;100314.88;;;12.44;67.68
50268;BME280;36153;50.960;6.220;2023-02-23T06:37:34;100313.09;;;12.36;67.67
50268;BME280;36153;50.960;6.220;2023-02-23T06:40:34;100314.00;;;12.39;67.52
50268;BME280;36153;50.960;6.220;2023-02-23T06:43:35;100314.88;;;12.44;67.67
50268;BME280;36153;50.960;6.220;2023-02-23T06:46:35;100316.63;;;12.52;67.45
50268;BME280;36153;50.960;6.220;2023-02-23T06:49:37;100320.94;;;12.46;67.34
50268;BME280;36153;50.960;6.220;2023-02-23T06:52:40;100324.44;;;12.55;67.58
50268;BME280;36153;50.960;6.220;2023-02-23T06:55:40;100331.41;;;12.57;67.19
50268;BME280;36153;50.960;6.220;2023-02-23T06:58:41;100339.22;;;12.46;67.51
50268;BME280;36153;50.960;6.220;2023-02-23T07:01:42;100343.59;;;12.46;67.65
50268;BME280;36153;50.960;6.220;2023-02-23T07:04:43;100347.94;;;12.49;67.74
50268;BME280;36153;50.960;6.220;2023-02-23T07:07:44;100350.53;;;12.45;67.53
50268;BME280;36153;50.960;6.220;2023-02-23T07:10:45;100345.31;;;12.39;67.55
50268;BME280;36153;50.960;6.220;2023-02-23T07:13:45;100340.97;;;12.40;67.74
50268;BME280;36153;50.960;6.220;2023-02-23T07:16:45;100353.16;;;12.55;67.40
50268;BME280;36153;50.960;6.220;2023-02-23T07:19:46;100351.44;;;12.57;67.60
50268;BME280;36153;50.960;6.220;2023-02-23T07:22:47;100358.38;;;12.58;67.45
50268;BME280;36153;50.960;6.220;2023-02-23T07:25:51;100361.88;;;12.61;67.30
50268;BME280;36153;50.960;6.220;2023-02-23T07:28:52;100367.09;;;12.69;67.21
50268;BME280;36153;50.960;6.220;2023-02-23T07:31:53;100374.94;;;12.60;66.98
50268;BME280;36153;50.960;6.220;2023-02-23T07:34:53;100377.50;;;12.41;67.21
50268;BME280;36153;50.960;6.220;2023-02-23T07:37:54;100377.50;;;12.35;67.65
50268;BME280;36153;50.960;6.220;2023-02-23T07:40:54;100379.25;;;12.36;68.15
50268;BME280;36153;50.960;6.220;2023-02-23T07:43:55;100376.59;;;12.32;67.79
50268;BME280;36153;50.960;6.220;2023-02-23T07:46:55;100381.00;;;12.45;67.92
50268;BME280;36153;50.960;6.220;2023-02-23T07:50:00;100382.75;;;12.44;67.42
50268;BME280;36153;50.960;6.220;2023-02-23T07:53:02;100387.97;;;12.48;67.82
50268;BME280;36153;50.960;6.220;2023-02-23T07:56:03;100395.81;;;12.51;67.59
50268;BME280;36153;50.960;6.220;2023-02-23T07:59:03;100394.94;;;12.50;67.59
50268;BME280;36153;50.960;6.220;2023-02-23T08:02:03;100395.81;;;12.49;67.57
50268;BME280;36153;50.960;6.220;2023-02-23T08:05:04;100394.91;;;12.33;67.29
50268;BME280;36153;50.960;6.220;2023-02-23T08:08:05;100395.78;;;12.35;67.65
50268;BME280;36153;50.960;6.220;2023-02-23T08:11:05;100402.72;;;12.30;67.86
50268;BME280;36153;50.960;6.220;2023-02-23T08:14:05;100407.94;;;12.25;67.78
50268;BME280;36153;50.960;6.220;2023-02-23T08:17:06;100402.72;;;12.32;67.88
50268;BME280;36153;50.960;6.220;2023-02-23T08:20:07;100414.03;;;12.29;67.88
50268;BME280;36153;50.960;6.220;2023-02-23T08:23:08;100427.91;;;12.17;67.97
50268;BME280;36153;50.960;6.220;2023-02-23T08:26:09;100420.97;;;12.22;68.10
50268;BME280;36153;50.960;6.220;2023-02-23T08:29:10;100425.31;;;12.20;68.40
50268;BME280;36153;50.960;6.220;2023-02-23T08:32:11;100427.97;;;12.34;67.89
50268;BME280;36153;50.960;6.220;2023-02-23T08:35:15;100429.72;;;12.31;67.86
50268;BME280;36153;50.960;6.220;2023-02-23T08:38:15;100429.72;;;12.38;67.94
50268;BME280;36153;50.960;6.220;2023-02-23T08:41:17;100437.50;;;12.27;67.89
50268;BME280;36153;50.960;6.220;2023-02-23T08:44:17;100445.31;;;12.23;67.73
50268;BME280;36153;50.960;6.220;2023-02-23T08:47:18;100436.59;;;12.15;67.93
50268;BME280;36153;50.960;6.220;2023-02-23T08:50:22;100443.59;;;12.28;67.72
50268;BME280;36153;50.960;6.220;2023-02-23T08:53:27;100437.50;;;12.27;67.35
50268;BME280;36153;50.960;6.220;2023-02-23T08:56:31;100440.16;;;12.41;67.62
50268;BME280;36153;50.960;6.220;2023-02-23T08:59:32;100442.75;;;12.41;67.37
50268;BME280;36153;50.960;6.220;2023-02-23T09:02:32;100434.97;;;12.55;67.37
50268;BME280;36153;50.960;6.220;2023-02-23T09:05:35;100441.94;;;12.55;66.77
50268;BME280;36153;50.960;6.220;2023-02-23T09:08:36;100445.44;;;12.60;66.86
50268;BME280;36153;50.960;6.220;2023-02-23T09:11:39;100452.34;;;12.45;66.64
50268;BME280;36153;50.960;6.220;2023-02-23T09:14:39;100452.38;;;12.52;66.51
50268;BME280;36153;50.960;6.220;2023-02-23T09:17:39;100458.47;;;12.48;66.82
50268;BME280;36153;50.960;6.220;2023-02-23T09:20:43;100464.53;;;12.43;66.31
50268;BME280;36153;50.960;6.220;2023-02-23T09:23:44;100468.84;;;12.34;66.73
50268;BME280;36153;50.960;6.220;2023-02-23T09:26:48;100473.19;;;12.30;66.82
50268;BME280;36153;50.960;6.220;2023-02-23T09:29:49;100468.00;;;12.39;66.80
50268;BME280;36153;50.960;6.220;2023-02-23T09:32:50;100462.00;;;12.65;66.52
50268;BME280;36153;50.960;6.220;2023-02-23T09:35:50;100459.38;;;12.71;66.19
50268;BME280;36153;50.960;6.220;2023-02-23T09:38:53;100473.28;;;12.58;66.13
50268;BME280;36153;50.960;6.220;2023-02-23T09:42:06;100471.53;;;12.54;66.28
50268;BME280;36153;50.960;6.220;2023-02-23T09:45:22;100485.44;;;12.50;66.09
50268;BME280;36153;50.960;6.220;2023-02-23T09:48:27;100486.22;;;12.27;66.81
50268;BME280;36153;50.960;6.220;2023-02-23T09:51:29;100484.56;;;12.44;66.59
50268;BME280;36153;50.960;6.220;2023-02-23T09:54:33;100482.00;;;12.63;66.08
50268;BME280;36153;50.960;6.220;2023-02-23T09:57:39;100493.31;;;12.63;65.51
50268;BME280;36153;50.960;6.220;2023-02-23T10:00:43;100492.44;;;12.69;65.53
50268;BME280;36153;50.960;6.220;2023-02-23T10:03:54;100509.00;;;12.70;65.61
50268;BME280;36153;50.960;6.220;2023-02-23T10:10:20;100514.88;;;12.18;65.97
50268;BME280;36153;50.960;6.220;2023-02-23T10:23:11;100520.16;;;12.30;66.16
50268;BME280;36153;50.960;6.220;2023-02-23T10:26:17;100512.31;;;12.25;65.99
50268;BME280;36153;50.960;6.220;2023-02-23T10:29:27;100520.09;;;12.18;66.53
50268;BME280;36153;50.960;6.220;2023-02-23T10:32:40;100526.16;;;12.09;67.16
50268;BME280;36153;50.960;6.220;2023-02-23T10:35:41;100532.19;;;11.97;67.04
50268;BME280;36153;50.960;6.220;2023-02-23T10:38:41;100534.03;;;12.18;66.94
50268;BME280;36153;50.960;6.220;2023-02-23T10:41:42;100534.81;;;12.02;67.10
50268;BME280;36153;50.960;6.220;2023-02-23T10:44:44;100531.34;;;12.01;66.99
50268;BME280;36153;50.960;6.220;2023-02-23T10:47:44;100532.00;;;11.78;68.13
50268;BME280;36153;50.960;6.220;2023-02-23T10:50:47;100533.06;;;12.04;67.69
50268;BME280;36153;50.960;6.220;2023-02-23T10:53:49;100534.81;;;12.05;67.38
50268;BME280;36153;50.960;6.220;2023-02-23T10:56:49;100547.09;;;12.20;67.28
50268;BME280;36153;50.960;6.220;2023-02-23T11:33:56;100532.53;;;12.73;65.68
50268;BME280;36153;50.960;6.220;2023-02-23T11:40:26;100520.38;;;13.01;65.05
50268;BME280;36153;50.960;6.220;2023-02-23T11:43:31;100530.84;;;12.98;64.64
50268;BME280;36153;50.960;6.220;2023-02-23T11:46:36;100529.97;;;13.01;64.50
50268;BME280;36153;50.960;6.220;2023-02-23T11:49:40;100529.97;;;13.02;64.04
50268;BME280;36153;50.960;6.220;2023-02-23T11:52:55;100526.47;;;12.95;63.73
50268;BME280;36153;50.960;6.220;2023-02-23T11:56:01;100528.16;;;12.69;64.71
50268;BME280;36153;50.960;6.220;2023-02-23T11:59:16;100526.41;;;12.64;64.67
50268;BME280;36153;50.960;6.220;2023-02-23T12:02:26;100527.25;;;12.59;64.87
50268;BME280;36153;50.960;6.220;2023-02-23T12:05:29;100520.31;;;12.70;64.65
50268;BME280;36153;50.960;6.220;2023-02-23T12:08:36;100519.47;;;12.74;64.22
50268;BME280;36153;50.960;6.220;2023-02-23T12:11:40;100523.72;;;12.46;64.89
50268;BME280;36153;50.960;6.220;2023-02-23T12:14:53;100517.63;;;12.42;65.08
50268;BME280;36153;50.960;6.220;2023-02-23T12:18:14;100519.31;;;12.29;65.45
50268;BME280;36153;50.960;6.220;2023-02-23T12:27:42;100518.47;;;12.35;65.33
50268;BME280;36153;50.960;6.220;2023-02-23T12:39:12;100517.78;;;14.05;62.00
50268;BME280;36153;50.960;6.220;2023-02-23T12:49:27;100506.09;;;14.88;60.17
50268;BME280;36153;50.960;6.220;2023-02-23T12:52:31;100507.97;;;14.64;58.82
50268;BME280;36153;50.960;6.220;2023-02-23T12:55:43;100500.38;;;13.88;60.06
50268;BME280;36153;50.960;6.220;2023-02-23T13:02:52;100494.25;;;13.86;58.76
50268;BME280;36153;50.960;6.220;2023-02-23T13:06:09;100502.03;;;14.20;58.60
50268;BME280;36153;50.960;6.220;2023-02-23T13:18:03;100494.56;;;15.15;55.18
50268;BME280;36153;50.960;6.220;2023-02-23T13:25:28;100497.34;;;14.95;55.72
50268;BME280;36153;50.960;6.220;2023-02-23T13:31:38;100497.41;;;14.79;56.68
50268;BME280;36153;50.960;6.220;2023-02-23T13:34:50;100501.84;;;14.73;55.70
50268;BME280;36153;50.960;6.220;2023-02-23T13:37:54;100505.34;;;14.61;56.59
50268;BME280;36153;50.960;6.220;2023-02-23T13:41:06;100508.91;;;14.47;56.60
50268;BME280;36153;50.960;6.220;2023-02-23T13:45:50;100501.94;;;14.43;57.19
50268;BME280;36153;50.960;6.220;2023-02-23T13:51:56;100495.69;;;14.72;57.93
50268;BME280;36153;50.960;6.220;2023-02-23T13:59:15;100498.22;;;14.92;55.47
50268;BME280;36153;50.960;6.220;2023-02-23T14:05:41;100508.00;;;14.51;55.82
50268;BME280;36153;50.960;6.220;2023-02-23T14:08:43;100506.25;;;14.54;56.49
50268;BME280;36153;50.960;6.220;2023-02-23T14:11:48;100500.28;;;14.19;56.13
50268;BME280;36153;50.960;6.220;2023-02-23T14:14:49;100502.09;;;14.05;55.46
50268;BME280;36153;50.960;6.220;2023-02-23T14:24:42;100514.34;;;13.81;57.50
50268;BME280;36153;50.960;6.220;2023-02-23T14:27:43;100510.88;;;13.73;58.20
50268;BME280;36153;50.960;6.220;2023-02-23T14:30:46;100509.09;;;13.84;57.79
50268;BME280;36153;50.960;6.220;2023-02-23T14:33:55;100509.09;;;13.76;57.72
50268;BME280;36153;50.960;6.220;2023-02-23T14:37:04;100514.34;;;13.62;58.13
50268;BME280;36153;50.960;6.220;2023-02-23T14:40:17;100511.78;;;13.50;58.31
50268;BME280;36153;50.960;6.220;2023-02-23T14:43:42;100520.47;;;13.52;58.52
50268;BME280;36153;50.960;6.220;2023-02-23T14:47:24;100518.72;;;13.65;58.23
50268;BME280;36153;50.960;6.220;2023-02-23T14:51:13;100525.72;;;13.47;58.19
50268;BME280;36153;50.960;6.220;2023-02-23T14:54:39;100537.03;;;13.36;58.08
50268;BME280;36153;50.960;6.220;2023-02-23T15:02:31;100530.94;;;13.38;57.73
50268;BME280;36153;50.960;6.220;2023-02-23T15:05:35;100527.44;;;13.58;57.26
50268;BME280;36153;50.960;6.220;2023-02-23T15:08:39;100533.50;;;13.83;57.43
50268;BME280;36153;50.960;6.220;2023-02-23T15:11:47;100538.75;;;13.80;57.11
50268;BME280;36153;50.960;6.220;2023-02-23T15:14:49;100537.88;;;13.82;57.07
50268;BME280;36153;50.960;6.220;2023-02-23T15:17:52;100537.88;;;13.76;56.85
50268;BME280;36153;50.960;6.220;2023-02-23T15:20:54;100532.69;;;13.64;57.57
50268;BME280;36153;50.960;6.220;2023-02-23T15:24:12;100535.25;;;13.31;58.06
50268;BME280;36153;50.960;6.220;2023-02-23T15:27:27;100539.59;;;13.12;58.90
50268;BME280;36153;50.960;6.220;2023-02-23T15:30:31;100543.03;;;13.05;59.19
50268;BME280;36153;50.960;6.220;2023-02-23T15:33:32;100537.00;;;13.12;59.15
50268;BME280;36153;50.960;6.220;2023-02-23T15:36:36;100539.59;;;13.14;59.23
50268;BME280;36153;50.960;6.220;2023-02-23T15:42:55;100553.47;;;12.84;59.83
50268;BME280;36153;50.960;6.220;2023-02-23T15:45:59;100546.53;;;12.92;59.43
50268;BME280;36153;50.960;6.220;2023-02-23T15:49:04;100549.13;;;12.93;59.06
50268;BME280;36153;50.960;6.220;2023-02-23T15:52:08;100552.56;;;12.74;59.39
50268;BME280;36153;50.960;6.220;2023-02-23T15:55:22;100556.03;;;12.76;58.72
50268;BME280;36153;50.960;6.220;2023-02-23T15:58:25;100542.19;;;13.02;58.20
50268;BME280;36153;50.960;6.220;2023-02-23T16:01:29;100547.38;;;12.89;58.81
50268;BME280;36153;50.960;6.220;2023-02-23T16:04:37;100548.19;;;12.74;58.83
50268;BME280;36153;50.960;6.220;2023-02-23T16:40:54;100540.34;;;12.67;59.05
50268;BME280;36153;50.960;6.220;2023-02-23T16:43:59;100544.63;;;12.49;59.06
50268;BME280;36153;50.960;6.220;2023-02-23T16:50:09;100549.91;;;12.63;58.03
50268;BME280;36153;50.960;6.220;2023-02-23T16:53:12;100544.72;;;12.74;57.31
50268;BME280;36153;50.960;6.220;2023-02-23T16:56:18;100537.75;;;12.76;56.41
50268;BME280;36153;50.960;6.220;2023-02-23T16:59:19;100535.13;;;12.74;56.86
50268;BME280;36153;50.960;6.220;2023-02-23T17:02:20;100541.16;;;12.58;56.86
50268;BME280;36153;50.960;6.220;2023-02-23T17:05:23;100536.00;;;12.67;56.78
50268;BME280;36153;50.960;6.220;2023-02-23T17:08:24;100533.38;;;12.62;57.12
50268;BME280;36153;50.960;6.220;2023-02-23T17:11:25;100529.00;;;12.57;57.24
50268;BME280;36153;50.960;6.220;2023-02-23T17:14:26;100540.25;;;12.46;58.08
50268;BME280;36153;50.960;6.220;2023-02-23T17:17:31;100539.38;;;12.43;58.08
50268;BME280;36153;50.960;6.220;2023-02-23T17:20:32;100551.53;;;12.38;58.27
50268;BME280;36153;50.960;6.220;2023-02-23T17:23:34;100555.91;;;12.39;58.45
50268;BME280;36153;50.960;6.220;2023-02-23T17:26:41;100562.03;;;12.47;57.87
50268;BME280;36153;50.960;6.220;2023-02-23T17:29:42;100565.50;;;12.44;57.98
50268;BME280;36153;50.960;6.220;2023-02-23T17:32:42;100566.22;;;12.20;58.66
50268;BME280;36153;50.960;6.220;2023-02-23T17:35:43;100562.84;;;12.37;58.41
50268;BME280;36153;50.960;6.220;2023-02-23T17:38:43;100566.31;;;12.34;58.49
50268;BME280;36153;50.960;6.220;2023-02-23T17:41:44;100562.78;;;12.27;58.62
50268;BME280;36153;50.960;6.220;2023-02-23T17:44:44;100563.59;;;12.16;59.19
50268;BME280;36153;50.960;6.220;2023-02-23T17:47:45;100567.13;;;12.21;59.14
50268;BME280;36153;50.960;6.220;2023-02-23T17:50:46;100565.44;;;12.35;58.78
50268;BME280;36153;50.960;6.220;2023-02-23T17:53:47;100567.13;;;12.28;58.98
50268;BME280;36153;50.960;6.220;2023-02-23T17:56:48;100569.66;;;12.10;59.69
50268;BME280;36153;50.960;6.220;2023-02-23T17:59:49;100570.44;;;11.98;60.32
50268;BME280;36153;50.960;6.220;2023-02-23T18:02:50;100577.47;;;12.05;60.52
50268;BME280;36153;50.960;6.220;2023-02-23T18:05:50;100579.28;;;12.20;59.80
50268;BME280;36153;50.960;6.220;2023-02-23T18:08:51;100574.03;;;12.19;59.75
50268;BME280;36153;50.960;6.220;2023-02-23T18:11:52;100579.19;;;12.08;59.99
50268;BME280;36153;50.960;6.220;2023-02-23T18:14:52;100583.56;;;12.09;60.21
50268;BME280;36153;50.960;6.220;2023-02-23T18:17:53;100580.03;;;12.04;60.51
50268;BME280;36153;50.960;6.220;2023-02-23T18:20:56;100580.09;;;12.08;60.18
50268;BME280;36153;50.960;6.220;2023-02-23T18:23:57;100588.63;;;11.93;60.48
50268;BME280;36153;50.960;6.220;2023-02-23T18:26:59;100589.59;;;12.03;60.27
50268;BME280;36153;50.960;6.220;2023-02-23T18:30:02;100583.38;;;11.87;60.67
50268;BME280;36153;50.960;6.220;2023-02-23T18:33:03;100589.44;;;11.85;60.51
50268;BME280;36153;50.960;6.220;2023-02-23T18:36:14;100589.59;;;12.03;59.94
50268;BME280;36153;50.960;6.220;2023-02-23T18:39:18;100592.06;;;11.86;60.35
50268;BME280;36153;50.960;6.220;2023-02-23T18:42:52;100587.81;;;11.96;60.11
50268;BME280;36153;50.960;6.220;2023-02-23T18:46:31;100581.78;;;12.03;59.78
50268;BME280;36153;50.960;6.220;2023-02-23T18:49:32;100581.75;;;11.95;59.75
50268;BME280;36153;50.960;6.220;2023-02-23T18:52:32;100588.59;;;11.86;60.66
50268;BME280;36153;50.960;6.220;2023-02-23T18:55:36;100584.13;;;11.72;60.56
50268;BME280;36153;50.960;6.220;2023-02-23T18:58:36;100580.78;;;11.90;60.59
50268;BME280;36153;50.960;6.220;2023-02-23T19:01:37;100586.72;;;11.69;60.89
50268;BME280;36153;50.960;6.220;2023-02-23T19:04:38;100585.00;;;11.73;61.15
50268;BME280;36153;50.960;6.220;2023-02-23T19:07:39;100583.22;;;11.69;61.06
50268;BME280;36153;50.960;6.220;2023-02-23T19:10:40;100580.66;;;11.72;61.00